sensor_id;sensor_type;location;lat;lon;timestamp;P1;P4;P2;P0;N10;N4;N25;N1;N05;TS
64840;SPS30;51307;52.162;7.560;2023-09-19T00:00:19;2.56;2.53;2.48;2.28;18.24;18.24;18.22;18.08;15.32;0.57
64840;SPS30;51307;52.162;7.560;2023-09-19T00:02:52;2.25;2.22;2.16;1.97;15.73;15.73;15.71;15.57;13.17;0.58
64840;SPS30;51307;52.162;7.560;2023-09-19T00:05:24;2.26;2.22;2.15;1.96;15.65;15.65;15.63;15.48;13.08;0.60
64840;SPS30;51307;52.162;7.560;2023-09-19T00:07:50;2.17;2.13;2.06;1.87;14.91;14.91;14.89;14.74;12.44;0.60
64840;SPS30;51307;52.162;7.560;2023-09-19T00:10:22;2.32;2.28;2.21;2.00;15.99;15.98;15.96;15.80;13.34;0.60
64840;SPS30;51307;52.162;7.560;2023-09-19T00:12:50;2.30;2.26;2.17;1.96;15.65;15.64;15.62;15.45;13.03;0.60
64840;SPS30;51307;52.162;7.560;2023-09-19T00:15:17;2.53;2.47;2.36;2.10;16.76;16.75;16.72;16.50;13.87;0.60
64840;SPS30;51307;52.162;7.560;2023-09-19T00:17:43;2.61;2.55;2.43;2.16;17.28;17.27;17.24;17.02;14.30;0.60
64840;SPS30;51307;52.162;7.560;2023-09-19T00:20:09;2.63;2.57;2.44;2.16;17.24;17.23;17.20;16.96;14.24;0.60
64840;SPS30;51307;52.162;7.560;2023-09-19T00:22:41;2.56;2.50;2.38;2.10;16.81;16.81;16.77;16.54;13.89;0.60
64840;SPS30;51307;52.162;7.560;2023-09-19T00:25:10;2.70;2.64;2.53;2.26;18.07;18.06;18.03;17.81;14.99;0.60
64840;SPS30;51307;52.162;7.560;2023-09-19T00:27:39;2.83;2.77;2.64;2.35;18.78;18.77;18.73;18.49;15.55;0.62
64840;SPS30;51307;52.162;7.560;2023-09-19T00:30:05;2.89;2.81;2.65;2.33;18.62;18.60;18.56;18.28;15.32;0.62
64840;SPS30;51307;52.162;7.560;2023-09-19T00:32:34;2.86;2.78;2.62;2.29;18.32;18.31;18.26;17.98;15.05;0.61
64840;SPS30;51307;52.162;7.560;2023-09-19T00:34:59;2.79;2.70;2.53;2.19;17.49;17.48;17.44;17.14;14.31;0.62
64840;SPS30;51307;52.162;7.560;2023-09-19T00:37:25;2.62;2.55;2.41;2.12;16.94;16.93;16.89;16.64;13.95;0.61
64840;SPS30;51307;52.162;7.560;2023-09-19T00:39:50;2.79;2.72;2.59;2.29;18.32;18.31;18.27;18.03;15.14;0.60
64840;SPS30;51307;52.162;7.560;2023-09-19T00:42:20;2.95;2.88;2.72;2.39;19.12;19.11;19.07;18.79;15.75;0.60
64840;SPS30;51307;52.162;7.560;2023-09-19T00:44:46;2.93;2.84;2.66;2.30;18.40;18.39;18.34;18.03;15.06;0.63
64840;SPS30;51307;52.162;7.560;2023-09-19T00:47:12;3.50;3.38;3.13;2.68;21.42;21.40;21.34;20.93;17.42;0.65
64840;SPS30;51307;52.162;7.560;2023-09-19T00:49:42;10.17;10.02;9.71;8.82;70.48;70.45;70.36;69.68;58.88;0.59
64840;SPS30;51307;52.162;7.560;2023-09-19T00:52:10;4.82;4.77;4.66;4.29;34.24;34.23;34.19;33.92;28.74;0.60
64840;SPS30;51307;52.162;7.560;2023-09-19T00:54:37;5.66;5.59;5.45;4.99;39.86;39.84;39.80;39.46;33.40;0.61
64840;SPS30;51307;52.162;7.560;2023-09-19T00:57:02;10.34;10.21;9.95;9.10;72.73;72.71;72.63;72.00;60.95;0.60
64840;SPS30;51307;52.162;7.560;2023-09-19T00:59:28;3.39;3.33;3.23;2.93;23.45;23.44;23.41;23.18;19.59;0.60
64840;SPS30;51307;52.162;7.560;2023-09-19T01:01:55;2.94;2.89;2.77;2.49;19.93;19.92;19.89;19.66;16.57;0.60
64840;SPS30;51307;52.162;7.560;2023-09-19T01:04:22;3.08;3.01;2.86;2.54;20.30;20.29;20.25;19.98;16.78;0.61
64840;SPS30;51307;52.162;7.560;2023-09-19T01:06:48;3.04;2.96;2.79;2.44;19.53;19.52;19.47;19.18;16.06;0.63
64840;SPS30;51307;52.162;7.560;2023-09-19T01:09:19;3.02;2.93;2.75;2.40;19.20;19.19;19.14;18.84;15.76;0.63
64840;SPS30;51307;52.162;7.560;2023-09-19T01:11:45;3.22;3.11;2.91;2.50;20.04;20.02;19.97;19.61;16.36;0.64
64840;SPS30;51307;52.162;7.560;2023-09-19T01:17:04;2.97;2.89;2.71;2.36;18.88;18.87;18.82;18.51;15.48;0.61
64840;SPS30;51307;52.162;7.560;2023-09-19T01:20:01;3.37;3.25;3.02;2.59;20.76;20.74;20.68;20.30;16.91;0.62
64840;SPS30;51307;52.162;7.560;2023-09-19T01:31:09;3.52;3.43;3.25;2.87;22.99;22.97;22.93;22.61;18.97;0.62
64840;SPS30;51307;52.162;7.560;2023-09-19T01:36:25;3.48;3.34;3.06;2.58;20.65;20.63;20.56;20.12;16.68;0.66
64840;SPS30;51307;52.162;7.560;2023-09-19T01:38:52;3.63;3.49;3.21;2.71;21.67;21.65;21.57;21.12;17.52;0.63
64840;SPS30;51307;52.162;7.560;2023-09-19T01:41:21;4.46;4.33;4.08;3.58;28.60;28.58;28.51;28.07;23.51;0.62
64840;SPS30;51307;52.162;7.560;2023-09-19T01:43:58;11.07;10.85;10.40;9.32;74.48;74.45;74.32;73.44;61.85;0.63
64840;SPS30;51307;52.162;7.560;2023-09-19T01:46:33;9.39;9.28;9.06;8.31;66.40;66.38;66.31;65.76;55.69;0.59
64840;SPS30;51307;52.162;7.560;2023-09-19T01:51:42;3.60;3.54;3.42;3.09;24.71;24.70;24.66;24.41;20.61;0.62
64840;SPS30;51307;52.162;7.560;2023-09-19T01:54:16;3.00;2.91;2.72;2.36;18.90;18.89;18.84;18.52;15.48;0.66
64840;SPS30;51307;52.162;7.560;2023-09-19T01:59:52;3.25;3.13;2.88;2.43;19.48;19.46;19.40;18.99;15.76;0.67
64840;SPS30;51307;52.162;7.560;2023-09-19T02:02:32;3.48;3.34;3.07;2.59;20.72;20.70;20.63;20.20;16.75;0.64
64840;SPS30;51307;52.162;7.560;2023-09-19T02:05:00;3.11;2.99;2.77;2.35;18.81;18.80;18.74;18.37;15.27;0.63
64840;SPS30;51307;52.162;7.560;2023-09-19T02:07:26;3.43;3.27;2.95;2.41;19.33;19.31;19.23;18.73;15.41;0.65
64840;SPS30;51307;52.162;7.560;2023-09-19T02:09:52;3.58;3.40;3.03;2.43;19.48;19.46;19.36;18.80;15.39;0.67
64840;SPS30;51307;52.162;7.560;2023-09-19T02:12:18;3.18;3.02;2.69;2.17;17.40;17.38;17.30;16.81;13.77;0.66
64840;SPS30;51307;52.162;7.560;2023-09-19T02:14:43;3.35;3.17;2.81;2.25;18.02;18.00;17.90;17.37;14.19;0.67
64840;SPS30;51307;52.162;7.560;2023-09-19T02:17:08;3.52;3.35;3.01;2.46;19.68;19.66;19.58;19.06;15.67;0.66
64840;SPS30;51307;52.162;7.560;2023-09-19T02:19:36;3.44;3.27;2.94;2.38;19.11;19.09;19.00;18.49;15.18;0.67
64840;SPS30;51307;52.162;7.560;2023-09-19T02:22:04;3.44;3.26;2.89;2.31;18.52;18.50;18.40;17.85;14.59;0.69
64840;SPS30;51307;52.162;7.560;2023-09-19T02:24:35;3.84;3.62;3.19;2.51;20.13;20.10;19.99;19.34;15.74;0.70
64840;SPS30;51307;52.162;7.560;2023-09-19T02:27:00;3.78;3.58;3.17;2.52;20.23;20.20;20.10;19.48;15.91;0.69
64840;SPS30;51307;52.162;7.560;2023-09-19T02:29:29;3.81;3.59;3.14;2.45;19.66;19.64;19.52;18.86;15.31;0.72
64840;SPS30;51307;52.162;7.560;2023-09-19T02:31:55;3.90;3.65;3.15;2.39;19.17;19.14;19.01;18.27;14.70;0.73
64840;SPS30;51307;52.162;7.560;2023-09-19T02:34:21;4.00;3.75;3.25;2.50;20.05;20.02;19.89;19.16;15.48;0.72
64840;SPS30;51307;52.162;7.560;2023-09-19T02:36:47;4.18;3.90;3.36;2.54;20.40;20.37;20.23;19.44;15.62;0.72
64840;SPS30;51307;52.162;7.560;2023-09-19T02:39:13;3.88;3.64;3.15;2.41;19.36;19.34;19.21;18.50;14.93;0.70
64840;SPS30;51307;52.162;7.560;2023-09-19T02:41:38;3.69;3.50;3.10;2.48;19.87;19.85;19.75;19.16;15.66;0.70
64840;SPS30;51307;52.162;7.560;2023-09-19T02:44:04;4.06;3.85;3.43;2.76;22.12;22.09;21.99;21.35;17.48;0.70
64840;SPS30;51307;52.162;7.560;2023-09-19T02:46:33;3.70;3.50;3.10;2.47;19.83;19.81;19.71;19.11;15.60;0.71
64840;SPS30;51307;52.162;7.560;2023-09-19T02:48:59;3.30;3.13;2.79;2.24;17.93;17.91;17.82;17.31;14.16;0.72
64840;SPS30;51307;52.162;7.560;2023-09-19T02:51:24;3.95;3.76;3.37;2.73;21.91;21.89;21.79;21.19;17.40;0.70
64840;SPS30;51307;52.162;7.560;2023-09-19T02:53:50;3.80;3.61;3.23;2.61;20.91;20.89;20.79;20.21;16.57;0.69
64840;SPS30;51307;52.162;7.560;2023-09-19T02:56:19;7.17;6.85;6.20;5.11;40.97;40.93;40.76;39.76;32.78;0.68
64840;SPS30;51307;52.162;7.560;2023-09-19T02:58:45;11.49;11.21;10.63;9.38;75.03;74.99;74.83;73.78;61.92;0.64
64840;SPS30;51307;52.162;7.560;2023-09-19T03:01:11;13.13;12.91;12.48;11.30;90.28;90.24;90.11;89.19;75.31;0.64
64840;SPS30;51307;52.162;7.560;2023-09-19T03:03:37;6.95;6.85;6.63;6.03;48.17;48.15;48.09;47.62;40.25;0.63
64840;SPS30;51307;52.162;7.560;2023-09-19T03:06:05;3.28;3.22;3.10;2.80;22.38;22.37;22.33;22.09;18.64;0.63
64840;SPS30;51307;52.162;7.560;2023-09-19T03:08:31;3.20;3.12;2.97;2.62;20.99;20.98;20.93;20.65;17.34;0.64
64840;SPS30;51307;52.162;7.560;2023-09-19T03:11:03;3.30;3.19;2.96;2.54;20.31;20.29;20.23;19.86;16.54;0.66
64840;SPS30;51307;52.162;7.560;2023-09-19T03:13:29;3.62;3.48;3.19;2.69;21.51;21.49;21.42;20.96;17.37;0.68
64840;SPS30;51307;52.162;7.560;2023-09-19T03:15:56;3.59;3.46;3.19;2.70;21.65;21.63;21.56;21.13;17.55;0.66
64840;SPS30;51307;52.162;7.560;2023-09-19T03:18:26;3.30;3.17;2.90;2.44;19.54;19.52;19.45;19.03;15.77;0.66
64840;SPS30;51307;52.162;7.560;2023-09-19T03:20:55;3.34;3.19;2.90;2.40;19.24;19.22;19.14;18.69;15.43;0.66
64840;SPS30;51307;52.162;7.560;2023-09-19T03:23:21;3.70;3.51;3.14;2.54;20.34;20.32;20.22;19.66;16.11;0.68
64840;SPS30;51307;52.162;7.560;2023-09-19T03:25:47;3.56;3.35;2.93;2.29;18.39;18.37;18.26;17.65;14.33;0.71
64840;SPS30;51307;52.162;7.560;2023-09-19T03:28:13;4.03;3.82;3.38;2.69;21.56;21.54;21.43;20.77;16.96;0.70
64840;SPS30;51307;52.162;7.560;2023-09-19T03:30:40;3.37;3.21;2.91;2.40;19.21;19.19;19.11;18.64;15.37;0.68
64840;SPS30;51307;52.162;7.560;2023-09-19T03:33:06;3.29;3.12;2.79;2.25;18.00;17.98;17.89;17.38;14.24;0.71
64840;SPS30;51307;52.162;7.560;2023-09-19T03:35:31;3.72;3.50;3.06;2.38;19.08;19.05;18.94;18.29;14.82;0.73
64840;SPS30;51307;52.162;7.560;2023-09-19T03:37:57;3.93;3.69;3.23;2.51;20.14;20.11;19.99;19.31;15.65;0.70
64840;SPS30;51307;52.162;7.560;2023-09-19T03:40:23;3.56;3.38;3.01;2.42;19.41;19.39;19.29;18.74;15.34;0.67
64840;SPS30;51307;52.162;7.560;2023-09-19T03:42:48;3.41;3.24;2.91;2.37;19.01;18.99;18.90;18.40;15.12;0.68
64840;SPS30;51307;52.162;7.560;2023-09-19T03:45:14;3.55;3.37;3.01;2.43;19.48;19.46;19.37;18.82;15.43;0.70
64840;SPS30;51307;52.162;7.560;2023-09-19T03:47:41;3.52;3.33;2.96;2.36;18.93;18.90;18.81;18.24;14.91;0.69
64840;SPS30;51307;52.162;7.560;2023-09-19T03:50:07;3.85;3.64;3.23;2.58;20.70;20.67;20.57;19.95;16.30;0.69
64840;SPS30;51307;52.162;7.560;2023-09-19T03:52:35;3.65;3.45;3.04;2.40;19.28;19.26;19.16;18.55;15.11;0.70
64840;SPS30;51307;52.162;7.560;2023-09-19T03:55:01;3.94;3.69;3.19;2.44;19.59;19.56;19.44;18.71;15.08;0.71
64840;SPS30;51307;52.162;7.560;2023-09-19T03:57:34;4.03;3.78;3.28;2.52;20.19;20.16;20.03;19.29;15.58;0.71
64840;SPS30;51307;52.162;7.560;2023-09-19T04:00:01;3.76;3.53;3.07;2.37;19.05;19.03;18.91;18.24;14.75;0.72
64840;SPS30;51307;52.162;7.560;2023-09-19T04:02:26;3.69;3.48;3.05;2.39;19.18;19.15;19.04;18.41;14.96;0.71
64840;SPS30;51307;52.162;7.560;2023-09-19T04:04:58;3.98;3.74;3.25;2.51;20.13;20.10;19.98;19.27;15.58;0.72
64840;SPS30;51307;52.162;7.560;2023-09-19T04:07:24;3.85;3.61;3.14;2.42;19.39;19.36;19.24;18.54;14.98;0.71
64840;SPS30;51307;52.162;7.560;2023-09-19T04:09:51;3.64;3.40;2.93;2.23;17.89;17.87;17.75;17.06;13.74;0.72
64840;SPS30;51307;52.162;7.560;2023-09-19T04:12:18;3.97;3.69;3.15;2.35;18.86;18.83;18.69;17.90;14.32;0.73
64840;SPS30;51307;52.162;7.560;2023-09-19T04:14:44;4.06;3.77;3.21;2.37;19.06;19.03;18.88;18.07;14.42;0.74
64840;SPS30;51307;52.162;7.560;2023-09-19T04:17:10;3.79;3.54;3.03;2.27;18.26;18.23;18.10;17.37;13.93;0.73
64840;SPS30;51307;52.162;7.560;2023-09-19T04:19:36;3.73;3.51;3.07;2.40;19.25;19.23;19.12;18.47;14.99;0.72
64840;SPS30;51307;52.162;7.560;2023-09-19T04:22:02;3.67;3.46;3.04;2.38;19.08;19.06;18.95;18.32;14.88;0.72
64840;SPS30;51307;52.162;7.560;2023-09-19T04:24:29;4.37;4.13;3.67;2.92;23.44;23.41;23.29;22.59;18.45;0.71
64840;SPS30;51307;52.162;7.560;2023-09-19T04:26:54;4.50;4.26;3.77;3.00;24.04;24.02;23.89;23.16;18.90;0.72
64840;SPS30;51307;52.162;7.560;2023-09-19T04:29:20;3.96;3.77;3.38;2.74;21.98;21.95;21.85;21.26;17.45;0.69
64840;SPS30;51307;52.162;7.560;2023-09-19T04:31:45;3.42;3.25;2.91;2.35;18.86;18.84;18.75;18.23;14.95;0.69
64840;SPS30;51307;52.162;7.560;2023-09-19T04:34:11;3.67;3.46;3.03;2.37;18.99;18.96;18.85;18.22;14.79;0.72
64840;SPS30;51307;52.162;7.560;2023-09-19T04:36:41;3.75;3.52;3.07;2.38;19.10;19.07;18.96;18.29;14.81;0.72
64840;SPS30;51307;52.162;7.560;2023-09-19T04:39:06;3.78;3.55;3.09;2.39;19.14;19.12;19.00;18.32;14.83;0.72
64840;SPS30;51307;52.162;7.560;2023-09-19T04:41:33;3.71;3.47;3.00;2.29;18.35;18.32;18.20;17.51;14.11;0.74
64840;SPS30;51307;52.162;7.560;2023-09-19T04:43:59;4.35;4.02;3.34;2.38;19.13;19.09;18.93;17.97;14.15;0.78
64840;SPS30;51307;52.162;7.560;2023-09-19T04:46:25;4.18;3.84;3.14;2.17;17.46;17.42;17.25;16.27;12.67;0.80
64840;SPS30;51307;52.162;7.560;2023-09-19T04:48:50;4.29;3.94;3.24;2.24;18.04;18.00;17.82;16.83;13.13;0.79
64840;SPS30;51307;52.162;7.560;2023-09-19T04:51:16;4.18;3.86;3.22;2.30;18.52;18.49;18.33;17.42;13.74;0.77
64840;SPS30;51307;52.162;7.560;2023-09-19T04:53:43;4.63;4.28;3.56;2.55;20.47;20.43;20.25;19.24;15.17;0.77
64840;SPS30;51307;52.162;7.560;2023-09-19T04:56:09;3.91;3.64;3.08;2.27;18.22;18.18;18.04;17.25;13.74;0.76
64840;SPS30;51307;52.162;7.560;2023-09-19T04:58:34;4.06;3.78;3.23;2.40;19.32;19.28;19.14;18.34;14.67;0.75
64840;SPS30;51307;52.162;7.560;2023-09-19T05:01:00;3.93;3.66;3.12;2.33;18.75;18.72;18.58;17.81;14.26;0.74
64840;SPS30;51307;52.162;7.560;2023-09-19T05:03:29;4.08;3.79;3.21;2.36;19.00;18.97;18.82;17.99;14.33;0.76
64840;SPS30;51307;52.162;7.560;2023-09-19T05:05:54;3.82;3.54;2.99;2.18;17.53;17.50;17.36;16.56;13.16;0.77
64840;SPS30;51307;52.162;7.560;2023-09-19T05:08:20;4.41;4.09;3.45;2.53;20.33;20.30;20.13;19.23;15.29;0.76
64840;SPS30;51307;52.162;7.560;2023-09-19T05:10:47;3.84;3.57;3.04;2.26;18.14;18.11;17.98;17.21;13.75;0.73
64840;SPS30;51307;52.162;7.560;2023-09-19T05:13:14;3.61;3.39;2.93;2.25;18.08;18.05;17.94;17.28;13.95;0.73
64840;SPS30;51307;52.162;7.560;2023-09-19T05:15:39;3.65;3.40;2.91;2.18;17.52;17.49;17.37;16.66;13.35;0.72
64840;SPS30;51307;52.162;7.560;2023-09-19T05:18:05;3.28;3.07;2.65;2.02;16.23;16.21;16.10;15.49;12.48;0.71
64840;SPS30;51307;52.162;7.560;2023-09-19T05:20:31;3.49;3.28;2.87;2.23;17.91;17.89;17.78;17.17;13.92;0.71
64840;SPS30;51307;52.162;7.560;2023-09-19T05:23:05;3.87;3.63;3.14;2.40;19.26;19.24;19.11;18.40;14.84;0.72
64840;SPS30;51307;52.162;7.560;2023-09-19T05:25:36;3.38;3.16;2.73;2.08;16.72;16.70;16.59;15.96;12.86;0.73
64840;SPS30;51307;52.162;7.560;2023-09-19T05:28:04;3.38;3.17;2.76;2.13;17.13;17.11;17.00;16.40;13.27;0.71
64840;SPS30;51307;52.162;7.560;2023-09-19T05:30:34;3.27;3.09;2.73;2.17;17.37;17.35;17.25;16.72;13.63;0.70
64840;SPS30;51307;52.162;7.560;2023-09-19T05:33:01;3.46;3.24;2.79;2.13;17.08;17.05;16.94;16.30;13.13;0.74
64840;SPS30;51307;52.162;7.560;2023-09-19T05:35:29;3.35;3.14;2.73;2.10;16.82;16.80;16.69;16.09;13.00;0.73
64840;SPS30;51307;52.162;7.560;2023-09-19T05:37:54;3.47;3.24;2.79;2.10;16.86;16.83;16.72;16.05;12.89;0.75
64840;SPS30;51307;52.162;7.560;2023-09-19T05:40:21;4.03;3.73;3.13;2.26;18.19;18.15;18.00;17.15;13.58;0.78
64840;SPS30;51307;52.162;7.560;2023-09-19T05:42:46;3.59;3.32;2.79;2.02;16.22;16.19;16.06;15.30;12.12;0.78
64840;SPS30;51307;52.162;7.560;2023-09-19T05:45:13;3.66;3.39;2.85;2.06;16.57;16.54;16.41;15.63;12.38;0.76
64840;SPS30;51307;52.162;7.560;2023-09-19T05:47:41;3.45;3.21;2.72;2.01;16.12;16.09;15.97;15.27;12.17;0.74
64840;SPS30;51307;52.162;7.560;2023-09-19T05:50:10;3.61;3.36;2.87;2.14;17.15;17.12;17.00;16.28;13.02;0.73
64840;SPS30;51307;52.162;7.560;2023-09-19T05:52:37;3.48;3.23;2.74;2.02;16.20;16.17;16.04;15.34;12.22;0.75
64840;SPS30;51307;52.162;7.560;2023-09-19T05:55:06;3.03;2.81;2.38;1.74;14.00;13.97;13.86;13.24;10.53;0.75
64840;SPS30;51307;52.162;7.560;2023-09-19T05:57:35;3.59;3.34;2.86;2.14;17.20;17.17;17.05;16.35;13.09;0.74
64840;SPS30;51307;52.162;7.560;2023-09-19T06:00:04;3.66;3.41;2.91;2.17;17.40;17.37;17.24;16.52;13.21;0.74
64840;SPS30;51307;52.162;7.560;2023-09-19T06:02:39;3.30;3.09;2.66;2.01;16.15;16.12;16.01;15.39;12.37;0.73
64840;SPS30;51307;52.162;7.560;2023-09-19T06:05:05;3.25;3.05;2.64;2.02;16.17;16.15;16.05;15.45;12.46;0.73
64840;SPS30;51307;52.162;7.560;2023-09-19T06:07:35;3.90;3.62;3.06;2.25;18.04;18.01;17.87;17.07;13.58;0.76
64840;SPS30;51307;52.162;7.560;2023-09-19T06:10:05;3.36;3.12;2.63;1.93;15.49;15.47;15.34;14.65;11.65;0.77
64840;SPS30;51307;52.162;7.560;2023-09-19T06:12:32;3.43;3.19;2.70;1.98;15.92;15.89;15.77;15.07;12.00;0.77
64840;SPS30;51307;52.162;7.560;2023-09-19T06:15:02;3.65;3.41;2.94;2.22;17.84;17.81;17.69;16.99;13.66;0.75
64840;SPS30;51307;52.162;7.560;2023-09-19T06:17:30;3.50;3.27;2.82;2.15;17.24;17.21;17.10;16.44;13.24;0.74
64840;SPS30;51307;52.162;7.560;2023-09-19T06:19:56;3.14;2.95;2.57;2.00;16.03;16.01;15.91;15.36;12.44;0.73
64840;SPS30;51307;52.162;7.560;2023-09-19T06:22:21;2.98;2.80;2.43;1.88;15.07;15.05;14.95;14.42;11.66;0.73
64840;SPS30;51307;52.162;7.560;2023-09-19T06:24:49;3.40;3.17;2.70;2.02;16.22;16.20;16.08;15.41;12.34;0.74
64840;SPS30;51307;52.162;7.560;2023-09-19T06:27:15;3.72;3.46;2.92;2.15;17.26;17.23;17.09;16.33;13.00;0.75
64840;SPS30;51307;52.162;7.560;2023-09-19T06:29:40;3.27;3.05;2.61;1.96;15.75;15.72;15.61;14.97;12.00;0.74
64840;SPS30;51307;52.162;7.560;2023-09-19T06:32:10;3.28;3.06;2.64;2.00;16.05;16.03;15.92;15.30;12.31;0.75
64840;SPS30;51307;52.162;7.560;2023-09-19T06:34:36;3.08;2.88;2.48;1.88;15.07;15.05;14.95;14.36;11.55;0.76
64840;SPS30;51307;52.162;7.560;2023-09-19T06:37:04;3.37;3.14;2.69;2.01;16.17;16.15;16.03;15.37;12.32;0.77
64840;SPS30;51307;52.162;7.560;2023-09-19T06:39:31;3.41;3.16;2.67;1.95;15.70;15.67;15.55;14.84;11.80;0.78
64840;SPS30;51307;52.162;7.560;2023-09-19T06:41:56;3.59;3.31;2.75;1.95;15.69;15.66;15.52;14.73;11.59;0.80
64840;SPS30;51307;52.162;7.560;2023-09-19T06:44:23;3.89;3.57;2.92;2.00;16.10;16.07;15.90;14.99;11.65;0.81
64840;SPS30;51307;52.162;7.560;2023-09-19T06:46:50;3.53;3.25;2.69;1.90;15.26;15.22;15.08;14.29;11.21;0.78
64840;SPS30;51307;52.162;7.560;2023-09-19T06:49:16;3.46;3.21;2.71;1.98;15.88;15.85;15.72;15.00;11.92;0.77
64840;SPS30;51307;52.162;7.560;2023-09-19T06:51:43;3.66;3.39;2.84;2.05;16.45;16.42;16.28;15.50;12.26;0.77
64840;SPS30;51307;52.162;7.560;2023-09-19T06:54:09;3.43;3.19;2.72;2.02;16.22;16.20;16.07;15.39;12.30;0.75
64840;SPS30;51307;52.162;7.560;2023-09-19T06:56:35;3.30;3.07;2.62;1.96;15.72;15.70;15.58;14.94;11.96;0.76
64840;SPS30;51307;52.162;7.560;2023-09-19T06:59:00;3.35;3.11;2.64;1.95;15.66;15.63;15.52;14.84;11.83;0.79
64840;SPS30;51307;52.162;7.560;2023-09-19T07:01:27;3.47;3.22;2.71;1.97;15.83;15.80;15.68;14.95;11.86;0.79
64840;SPS30;51307;52.162;7.560;2023-09-19T07:03:53;3.47;3.23;2.75;2.04;16.37;16.34;16.22;15.53;12.41;0.77
64840;SPS30;51307;52.162;7.560;2023-09-19T07:06:19;3.17;2.96;2.56;1.95;15.62;15.60;15.49;14.90;12.00;0.75
64840;SPS30;51307;52.162;7.560;2023-09-19T07:08:44;3.11;2.92;2.54;1.95;15.67;15.65;15.55;14.99;12.11;0.74
64840;SPS30;51307;52.162;7.560;2023-09-19T07:11:10;3.30;3.09;2.69;2.07;16.63;16.60;16.50;15.91;12.86;0.75
64840;SPS30;51307;52.162;7.560;2023-09-19T07:13:37;3.14;2.96;2.59;2.03;16.26;16.24;16.15;15.61;12.68;0.72
64840;SPS30;51307;52.162;7.560;2023-09-19T07:16:04;7.23;6.89;6.21;5.07;40.64;40.60;40.42;39.37;32.38;0.69
64840;SPS30;51307;52.162;7.560;2023-09-19T07:18:29;6.86;6.71;6.42;5.74;45.86;45.84;45.76;45.20;38.04;0.60
64840;SPS30;51307;52.162;7.560;2023-09-19T07:20:57;3.05;2.99;2.87;2.57;20.54;20.53;20.49;20.25;17.06;0.61
64840;SPS30;51307;52.162;7.560;2023-09-19T07:23:30;2.46;2.36;2.15;1.79;14.32;14.30;14.25;13.92;11.50;0.67
64840;SPS30;51307;52.162;7.560;2023-09-19T07:26:00;3.13;2.94;2.57;1.99;15.97;15.95;15.85;15.30;12.39;0.71
64840;SPS30;51307;52.162;7.560;2023-09-19T07:28:26;3.22;3.01;2.59;1.96;15.70;15.68;15.57;14.96;12.02;0.71
64840;SPS30;51307;52.162;7.560;2023-09-19T07:30:53;3.22;3.04;2.67;2.09;16.77;16.75;16.66;16.11;13.09;0.68
64840;SPS30;51307;52.162;7.560;2023-09-19T07:33:19;2.82;2.66;2.34;1.83;14.71;14.69;14.61;14.13;11.48;0.69
64840;SPS30;51307;52.162;7.560;2023-09-19T07:35:47;4.38;4.12;3.59;2.77;22.25;22.22;22.08;21.30;17.24;0.71
64840;SPS30;51307;52.162;7.560;2023-09-19T07:38:13;7.11;6.85;6.35;5.41;43.32;43.29;43.15;42.32;35.21;0.63
64840;SPS30;51307;52.162;7.560;2023-09-19T07:40:39;2.88;2.79;2.62;2.27;18.16;18.15;18.10;17.80;14.88;0.64
64840;SPS30;51307;52.162;7.560;2023-09-19T07:43:04;2.70;2.58;2.32;1.90;15.23;15.21;15.15;14.76;12.14;0.68
64840;SPS30;51307;52.162;7.560;2023-09-19T07:45:31;2.93;2.77;2.46;1.96;15.68;15.67;15.58;15.11;12.34;0.70
64840;SPS30;51307;52.162;7.560;2023-09-19T07:47:57;3.30;3.12;2.76;2.19;17.53;17.51;17.42;16.87;13.76;0.71
64840;SPS30;51307;52.162;7.560;2023-09-19T07:50:23;2.99;2.81;2.43;1.86;14.93;14.91;14.82;14.27;11.51;0.73
64840;SPS30;51307;52.162;7.560;2023-09-19T07:52:49;3.36;3.14;2.71;2.06;16.54;16.52;16.41;15.78;12.70;0.73
64840;SPS30;51307;52.162;7.560;2023-09-19T07:55:21;3.53;3.30;2.85;2.17;17.42;17.39;17.28;16.62;13.38;0.75
64840;SPS30;51307;52.162;7.560;2023-09-19T07:57:50;3.55;3.30;2.82;2.10;16.88;16.86;16.73;16.03;12.83;0.76
64840;SPS30;51307;52.162;7.560;2023-09-19T08:00:16;3.38;3.13;2.63;1.90;15.26;15.24;15.11;14.39;11.40;0.78
64840;SPS30;51307;52.162;7.560;2023-09-19T08:02:42;3.31;3.06;2.58;1.88;15.08;15.05;14.93;14.23;11.30;0.77
64840;SPS30;51307;52.162;7.560;2023-09-19T08:05:08;3.64;3.36;2.80;2.00;16.08;16.05;15.90;15.11;11.91;0.79
64840;SPS30;51307;52.162;7.560;2023-09-19T08:07:36;4.82;4.45;3.70;2.63;21.19;21.15;20.96;19.91;15.68;0.80
64840;SPS30;51307;52.162;7.560;2023-09-19T08:10:08;9.50;9.18;8.54;7.34;58.71;58.67;58.50;57.44;47.87;0.64
64840;SPS30;51307;52.162;7.560;2023-09-19T08:12:38;3.45;3.39;3.27;2.96;23.65;23.64;23.60;23.36;19.72;0.63
64840;SPS30;51307;52.162;7.560;2023-09-19T08:15:11;2.59;2.52;2.38;2.09;16.71;16.70;16.66;16.42;13.76;0.64
64840;SPS30;51307;52.162;7.560;2023-09-19T08:17:41;2.47;2.37;2.16;1.80;14.40;14.39;14.33;14.00;11.58;0.69
64840;SPS30;51307;52.162;7.560;2023-09-19T08:20:07;3.42;3.25;2.90;2.33;18.70;18.68;18.59;18.06;14.80;0.72
64840;SPS30;51307;52.162;7.560;2023-09-19T08:22:42;3.36;3.19;2.83;2.27;18.19;18.17;18.08;17.54;14.35;0.72
64840;SPS30;51307;52.162;7.560;2023-09-19T08:25:19;3.48;3.28;2.87;2.25;18.02;18.00;17.90;17.30;14.04;0.73
64840;SPS30;51307;52.162;7.560;2023-09-19T08:27:50;3.47;3.24;2.79;2.11;16.95;16.93;16.81;16.16;12.99;0.75
64840;SPS30;51307;52.162;7.560;2023-09-19T08:30:17;4.21;3.91;3.32;2.44;19.60;19.57;19.42;18.56;14.79;0.77
64840;SPS30;51307;52.162;7.560;2023-09-19T08:32:58;3.28;3.07;2.66;2.03;16.31;16.29;16.18;15.58;12.57;0.72
64840;SPS30;51307;52.162;7.560;2023-09-19T08:35:27;3.53;3.32;2.90;2.25;18.04;18.01;17.91;17.29;14.01;0.70
64840;SPS30;51307;52.162;7.560;2023-09-19T08:37:53;3.62;3.41;2.99;2.33;18.73;18.70;18.59;17.97;14.59;0.71
64840;SPS30;51307;52.162;7.560;2023-09-19T08:40:20;3.96;3.71;3.22;2.47;19.86;19.83;19.71;18.99;15.34;0.74
64840;SPS30;51307;52.162;7.560;2023-09-19T08:42:50;4.28;3.99;3.41;2.55;20.47;20.44;20.29;19.45;15.57;0.75
64840;SPS30;51307;52.162;7.560;2023-09-19T08:45:18;3.79;3.53;3.01;2.24;18.01;17.99;17.85;17.11;13.69;0.74
64840;SPS30;51307;52.162;7.560;2023-09-19T08:47:50;3.84;3.59;3.09;2.33;18.73;18.70;18.57;17.84;14.33;0.72
64840;SPS30;51307;52.162;7.560;2023-09-19T08:50:31;4.15;3.83;3.20;2.28;18.36;18.32;18.16;17.26;13.61;0.77
64840;SPS30;51307;52.162;7.560;2023-09-19T08:53:01;4.45;4.09;3.38;2.37;19.09;19.05;18.87;17.87;14.00;0.78
64840;SPS30;51307;52.162;7.560;2023-09-19T08:55:37;4.33;4.02;3.38;2.46;19.81;19.78;19.62;18.71;14.85;0.76
64840;SPS30;51307;52.162;7.560;2023-09-19T08:58:08;3.87;3.63;3.14;2.40;19.30;19.27;19.14;18.43;14.87;0.72
64840;SPS30;51307;52.162;7.560;2023-09-19T09:00:36;3.56;3.35;2.92;2.27;18.20;18.17;18.07;17.44;14.13;0.70
64840;SPS30;51307;52.162;7.560;2023-09-19T09:03:02;3.77;3.55;3.13;2.47;19.77;19.75;19.64;19.01;15.47;0.71
64840;SPS30;51307;52.162;7.560;2023-09-19T09:05:31;4.21;3.98;3.53;2.81;22.53;22.50;22.38;21.70;17.71;0.69
64840;SPS30;51307;52.162;7.560;2023-09-19T09:08:01;3.42;3.28;2.99;2.50;20.03;20.01;19.94;19.49;16.13;0.66
64840;SPS30;51307;52.162;7.560;2023-09-19T09:10:31;3.81;3.65;3.33;2.78;22.24;22.22;22.14;21.63;17.89;0.67
64840;SPS30;51307;52.162;7.560;2023-09-19T09:12:57;3.23;3.08;2.77;2.27;18.17;18.15;18.07;17.60;14.48;0.69
64840;SPS30;51307;52.162;7.560;2023-09-19T09:15:23;3.78;3.59;3.22;2.61;20.90;20.88;20.78;20.21;16.58;0.70
64840;SPS30;51307;52.162;7.560;2023-09-19T09:17:50;4.72;4.52;4.14;3.46;27.74;27.71;27.61;27.00;22.35;0.67
64840;SPS30;51307;52.162;7.560;2023-09-19T09:20:18;3.42;3.31;3.09;2.66;21.29;21.28;21.22;20.84;17.39;0.64
64840;SPS30;51307;52.162;7.560;2023-09-19T09:22:53;3.16;3.04;2.81;2.38;19.03;19.02;18.96;18.57;15.42;0.66
64840;SPS30;51307;52.162;7.560;2023-09-19T09:25:25;3.13;3.01;2.76;2.33;18.62;18.60;18.54;18.14;15.04;0.67
64840;SPS30;51307;52.162;7.560;2023-09-19T09:28:19;3.12;3.01;2.78;2.37;18.97;18.96;18.90;18.53;15.41;0.65
64840;SPS30;51307;52.162;7.560;2023-09-19T09:30:46;2.75;2.66;2.48;2.13;17.06;17.04;17.00;16.69;13.91;0.64
64840;SPS30;51307;52.162;7.560;2023-09-19T09:33:13;3.26;3.12;2.82;2.32;18.62;18.60;18.52;18.06;14.89;0.69